sensor_id;sensor_type;location;lat;lon;timestamp;P1;durP1;ratioP1;P2;durP2;ratioP2
43710;SDS011;29309;42.682;23.372;2023-02-21T00:01:30;9.20;;;4.55;;
43710;SDS011;29309;42.682;23.372;2023-02-21T00:04:14;14.18;;;4.35;;
43710;SDS011;29309;42.682;23.372;2023-02-21T00:06:58;10.23;;;4.70;;
43710;SDS011;29309;42.682;23.372;2023-02-21T00:09:42;10.70;;;4.97;;
43710;SDS011;29309;42.682;23.372;2023-02-21T00:12:26;11.75;;;5.43;;
43710;SDS011;29309;42.682;23.372;2023-02-21T00:15:10;11.90;;;4.97;;
43710;SDS011;29309;42.682;23.372;2023-02-21T00:17:54;9.77;;;4.20;;
43710;SDS011;29309;42.682;23.372;2023-02-21T00:20:38;9.93;;;4.70;;
43710;SDS011;29309;42.682;23.372;2023-02-21T00:23:22;10.70;;;4.97;;
43710;SDS011;29309;42.682;23.372;2023-02-21T00:26:06;9.90;;;4.75;;
43710;SDS011;29309;42.682;23.372;2023-02-21T00:28:50;14.07;;;5.03;;
43710;SDS011;29309;42.682;23.372;2023-02-21T00:31:34;15.32;;;5.35;;
43710;SDS011;29309;42.682;23.372;2023-02-21T00:34:18;12.02;;;5.55;;
43710;SDS011;29309;42.682;23.372;2023-02-21T00:37:01;15.45;;;4.95;;
43710;SDS011;29309;42.682;23.372;2023-02-21T00:39:46;12.85;;;4.65;;
43710;SDS011;29309;42.682;23.372;2023-02-21T00:42:29;10.80;;;4.20;;
43710;SDS011;29309;42.682;23.372;2023-02-21T00:45:13;10.25;;;4.40;;
43710;SDS011;29309;42.682;23.372;2023-02-21T00:47:57;12.60;;;4.53;;
43710;SDS011;29309;42.682;23.372;2023-02-21T00:50:41;11.48;;;5.20;;
43710;SDS011;29309;42.682;23.372;2023-02-21T00:53:25;10.32;;;4.45;;
43710;SDS011;29309;42.682;23.372;2023-02-21T00:56:09;9.68;;;4.30;;
43710;SDS011;29309;42.682;23.372;2023-02-21T00:58:53;10.55;;;5.03;;
43710;SDS011;29309;42.682;23.372;2023-02-21T01:01:37;11.15;;;4.45;;
43710;SDS011;29309;42.682;23.372;2023-02-21T01:04:21;10.43;;;4.72;;
43710;SDS011;29309;42.682;23.372;2023-02-21T01:07:05;13.73;;;5.03;;
43710;SDS011;29309;42.682;23.372;2023-02-21T01:09:50;10.55;;;4.68;;
43710;SDS011;29309;42.682;23.372;2023-02-21T01:12:33;11.15;;;4.95;;
43710;SDS011;29309;42.682;23.372;2023-02-21T01:15:17;10.82;;;4.38;;
43710;SDS011;29309;42.682;23.372;2023-02-21T01:18:01;9.30;;;4.80;;
43710;SDS011;29309;42.682;23.372;2023-02-21T01:20:46;12.00;;;4.78;;
43710;SDS011;29309;42.682;23.372;2023-02-21T01:23:30;9.70;;;4.05;;
43710;SDS011;29309;42.682;23.372;2023-02-21T01:26:14;8.50;;;4.18;;
43710;SDS011;29309;42.682;23.372;2023-02-21T01:28:58;15.23;;;4.85;;
43710;SDS011;29309;42.682;23.372;2023-02-21T01:31:42;9.75;;;4.32;;
43710;SDS011;29309;42.682;23.372;2023-02-21T01:34:26;9.07;;;4.70;;
43710;SDS011;29309;42.682;23.372;2023-02-21T01:37:10;8.98;;;4.95;;
43710;SDS011;29309;42.682;23.372;2023-02-21T01:39:54;8.48;;;3.83;;
43710;SDS011;29309;42.682;23.372;2023-02-21T01:42:38;9.27;;;4.10;;
43710;SDS011;29309;42.682;23.372;2023-02-21T01:48:05;6.40;;;3.22;;
43710;SDS011;29309;42.682;23.372;2023-02-21T01:50:51;6.60;;;3.22;;
43710;SDS011;29309;42.682;23.372;2023-02-21T01:53:37;9.95;;;3.45;;
43710;SDS011;29309;42.682;23.372;2023-02-21T01:56:21;7.10;;;3.13;;
43710;SDS011;29309;42.682;23.372;2023-02-21T01:59:06;6.60;;;3.20;;
43710;SDS011;29309;42.682;23.372;2023-02-21T02:02:12;6.90;;;2.90;;
43710;SDS011;29309;42.682;23.372;2023-02-21T02:05:02;8.63;;;3.10;;
43710;SDS011;29309;42.682;23.372;2023-02-21T02:10:32;10.00;;;3.90;;
43710;SDS011;29309;42.682;23.372;2023-02-21T02:23:33;6.90;;;2.65;;
43710;SDS011;29309;42.682;23.372;2023-02-21T02:42:38;11.23;;;4.60;;
43710;SDS011;29309;42.682;23.372;2023-02-21T02:47:49;14.05;;;3.60;;
43710;SDS011;29309;42.682;23.372;2023-02-21T02:50:19;10.10;;;4.57;;
43710;SDS011;29309;42.682;23.372;2023-02-21T02:52:51;14.65;;;3.83;;
43710;SDS011;29309;42.682;23.372;2023-02-21T02:55:27;7.53;;;3.55;;
43710;SDS011;29309;42.682;23.372;2023-02-21T02:57:58;9.73;;;3.42;;
43710;SDS011;29309;42.682;23.372;2023-02-21T03:00:24;8.30;;;3.38;;
43710;SDS011;29309;42.682;23.372;2023-02-21T03:05:37;8.43;;;3.47;;
43710;SDS011;29309;42.682;23.372;2023-02-21T03:08:45;12.85;;;3.40;;
43710;SDS011;29309;42.682;23.372;2023-02-21T03:11:13;6.85;;;2.20;;
43710;SDS011;29309;42.682;23.372;2023-02-21T03:13:46;5.70;;;2.03;;
43710;SDS011;29309;42.682;23.372;2023-02-21T03:17:00;7.30;;;2.33;;
43710;SDS011;29309;42.682;23.372;2023-02-21T03:19:11;8.60;;;2.63;;
43710;SDS011;29309;42.682;23.372;2023-02-21T03:21:48;9.05;;;3.42;;
43710;SDS011;29309;42.682;23.372;2023-02-21T03:24:19;11.57;;;2.42;;
43710;SDS011;29309;42.682;23.372;2023-02-21T03:26:48;5.63;;;2.67;;
43710;SDS011;29309;42.682;23.372;2023-02-21T03:29:17;6.50;;;2.03;;
43710;SDS011;29309;42.682;23.372;2023-02-21T03:31:45;4.05;;;2.33;;
43710;SDS011;29309;42.682;23.372;2023-02-21T03:34:15;6.78;;;2.10;;
43710;SDS011;29309;42.682;23.372;2023-02-21T03:36:41;6.80;;;2.05;;
43710;SDS011;29309;42.682;23.372;2023-02-21T03:39:07;7.90;;;2.80;;
43710;SDS011;29309;42.682;23.372;2023-02-21T03:41:32;4.40;;;2.30;;
43710;SDS011;29309;42.682;23.372;2023-02-21T03:43:58;6.63;;;2.60;;
43710;SDS011;29309;42.682;23.372;2023-02-21T03:46:23;9.18;;;2.65;;
43710;SDS011;29309;42.682;23.372;2023-02-21T03:48:49;8.65;;;2.42;;
43710;SDS011;29309;42.682;23.372;2023-02-21T03:51:14;5.60;;;2.20;;
43710;SDS011;29309;42.682;23.372;2023-02-21T03:53:40;6.38;;;2.53;;
43710;SDS011;29309;42.682;23.372;2023-02-21T03:56:05;11.10;;;2.72;;
43710;SDS011;29309;42.682;23.372;2023-02-21T03:58:32;7.53;;;2.70;;
43710;SDS011;29309;42.682;23.372;2023-02-21T04:00:57;4.45;;;2.13;;
43710;SDS011;29309;42.682;23.372;2023-02-21T04:03:23;4.10;;;2.05;;
43710;SDS011;29309;42.682;23.372;2023-02-21T04:05:48;6.35;;;2.78;;
43710;SDS011;29309;42.682;23.372;2023-02-21T04:08:14;5.90;;;2.47;;
43710;SDS011;29309;42.682;23.372;2023-02-21T04:10:40;7.82;;;2.30;;
43710;SDS011;29309;42.682;23.372;2023-02-21T04:13:05;8.95;;;2.55;;
43710;SDS011;29309;42.682;23.372;2023-02-21T04:15:31;7.70;;;2.42;;
43710;SDS011;29309;42.682;23.372;2023-02-21T04:17:57;8.07;;;2.30;;
43710;SDS011;29309;42.682;23.372;2023-02-21T04:20:23;6.88;;;2.28;;
43710;SDS011;29309;42.682;23.372;2023-02-21T04:22:48;5.15;;;2.15;;
43710;SDS011;29309;42.682;23.372;2023-02-21T04:25:14;4.68;;;2.10;;
43710;SDS011;29309;42.682;23.372;2023-02-21T04:27:40;4.75;;;2.25;;
43710;SDS011;29309;42.682;23.372;2023-02-21T04:30:05;5.43;;;2.42;;
43710;SDS011;29309;42.682;23.372;2023-02-21T04:32:31;5.47;;;2.65;;
43710;SDS011;29309;42.682;23.372;2023-02-21T04:34:56;7.88;;;2.38;;
43710;SDS011;29309;42.682;23.372;2023-02-21T04:37:22;5.35;;;2.40;;
43710;SDS011;29309;42.682;23.372;2023-02-21T04:39:47;5.60;;;2.20;;
43710;SDS011;29309;42.682;23.372;2023-02-21T04:42:13;8.13;;;1.85;;
43710;SDS011;29309;42.682;23.372;2023-02-21T04:44:38;4.70;;;1.98;;
43710;SDS011;29309;42.682;23.372;2023-02-21T04:47:03;3.70;;;2.15;;
43710;SDS011;29309;42.682;23.372;2023-02-21T04:49:29;3.72;;;2.13;;
43710;SDS011;29309;42.682;23.372;2023-02-21T04:51:54;4.65;;;1.95;;
43710;SDS011;29309;42.682;23.372;2023-02-21T04:54:20;4.32;;;1.92;;
43710;SDS011;29309;42.682;23.372;2023-02-21T04:56:45;6.40;;;1.73;;
43710;SDS011;29309;42.682;23.372;2023-02-21T04:59:11;5.50;;;1.70;;
43710;SDS011;29309;42.682;23.372;2023-02-21T05:01:36;6.68;;;2.17;;
43710;SDS011;29309;42.682;23.372;2023-02-21T05:04:02;4.28;;;1.83;;
43710;SDS011;29309;42.682;23.372;2023-02-21T05:06:28;8.90;;;1.88;;
43710;SDS011;29309;42.682;23.372;2023-02-21T05:08:55;6.47;;;2.55;;
43710;SDS011;29309;42.682;23.372;2023-02-21T05:11:21;7.65;;;2.40;;
43710;SDS011;29309;42.682;23.372;2023-02-21T05:13:47;5.60;;;2.35;;
43710;SDS011;29309;42.682;23.372;2023-02-21T05:16:13;4.43;;;2.13;;
43710;SDS011;29309;42.682;23.372;2023-02-21T05:18:42;6.72;;;2.55;;
43710;SDS011;29309;42.682;23.372;2023-02-21T05:21:08;5.68;;;1.95;;
43710;SDS011;29309;42.682;23.372;2023-02-21T05:23:34;6.03;;;2.22;;
43710;SDS011;29309;42.682;23.372;2023-02-21T05:26:01;13.93;;;2.40;;
43710;SDS011;29309;42.682;23.372;2023-02-21T05:28:28;6.60;;;2.50;;
43710;SDS011;29309;42.682;23.372;2023-02-21T05:30:53;5.35;;;3.25;;
43710;SDS011;29309;42.682;23.372;2023-02-21T05:33:19;7.03;;;3.10;;
43710;SDS011;29309;42.682;23.372;2023-02-21T05:35:45;8.68;;;4.10;;
43710;SDS011;29309;42.682;23.372;2023-02-21T05:38:14;12.57;;;4.28;;
43710;SDS011;29309;42.682;23.372;2023-02-21T05:40:40;9.65;;;3.92;;
43710;SDS011;29309;42.682;23.372;2023-02-21T05:43:06;9.38;;;3.58;;
43710;SDS011;29309;42.682;23.372;2023-02-21T05:45:31;12.80;;;4.38;;
43710;SDS011;29309;42.682;23.372;2023-02-21T05:47:57;8.07;;;3.65;;
43710;SDS011;29309;42.682;23.372;2023-02-21T05:50:25;19.45;;;4.57;;
43710;SDS011;29309;42.682;23.372;2023-02-21T05:52:51;12.43;;;5.32;;
43710;SDS011;29309;42.682;23.372;2023-02-21T05:55:17;14.55;;;4.38;;
43710;SDS011;29309;42.682;23.372;2023-02-21T05:57:43;10.13;;;4.55;;
43710;SDS011;29309;42.682;23.372;2023-02-21T06:00:15;11.07;;;3.75;;
43710;SDS011;29309;42.682;23.372;2023-02-21T06:02:48;9.38;;;3.80;;
43710;SDS011;29309;42.682;23.372;2023-02-21T06:05:15;12.63;;;3.63;;
43710;SDS011;29309;42.682;23.372;2023-02-21T06:07:41;11.65;;;3.22;;
43710;SDS011;29309;42.682;23.372;2023-02-21T06:10:07;5.72;;;3.30;;
43710;SDS011;29309;42.682;23.372;2023-02-21T06:12:32;26.90;;;5.13;;
43710;SDS011;29309;42.682;23.372;2023-02-21T06:14:58;13.95;;;4.07;;
43710;SDS011;29309;42.682;23.372;2023-02-21T06:17:23;22.25;;;4.45;;
43710;SDS011;29309;42.682;23.372;2023-02-21T06:19:50;11.70;;;4.70;;
43710;SDS011;29309;42.682;23.372;2023-02-21T06:22:16;13.77;;;3.72;;
43710;SDS011;29309;42.682;23.372;2023-02-21T06:24:42;9.68;;;4.40;;
43710;SDS011;29309;42.682;23.372;2023-02-21T06:27:07;8.32;;;4.63;;
43710;SDS011;29309;42.682;23.372;2023-02-21T06:29:33;7.00;;;3.00;;
43710;SDS011;29309;42.682;23.372;2023-02-21T06:31:59;12.70;;;3.58;;
43710;SDS011;29309;42.682;23.372;2023-02-21T06:34:25;7.13;;;3.15;;
43710;SDS011;29309;42.682;23.372;2023-02-21T06:36:52;17.20;;;3.70;;
43710;SDS011;29309;42.682;23.372;2023-02-21T06:39:18;5.25;;;3.00;;
43710;SDS011;29309;42.682;23.372;2023-02-21T06:41:44;10.20;;;3.35;;
43710;SDS011;29309;42.682;23.372;2023-02-21T06:44:10;13.63;;;3.53;;
43710;SDS011;29309;42.682;23.372;2023-02-21T06:46:36;13.98;;;3.17;;
43710;SDS011;29309;42.682;23.372;2023-02-21T06:49:02;10.98;;;3.42;;
43710;SDS011;29309;42.682;23.372;2023-02-21T06:51:32;10.18;;;4.13;;
43710;SDS011;29309;42.682;23.372;2023-02-21T06:54:02;11.73;;;2.85;;
43710;SDS011;29309;42.682;23.372;2023-02-21T06:56:28;10.80;;;3.00;;
43710;SDS011;29309;42.682;23.372;2023-02-21T06:58:54;7.90;;;3.03;;
43710;SDS011;29309;42.682;23.372;2023-02-21T07:01:19;9.70;;;2.95;;
43710;SDS011;29309;42.682;23.372;2023-02-21T07:03:45;7.38;;;3.28;;
43710;SDS011;29309;42.682;23.372;2023-02-21T07:06:11;14.70;;;5.78;;
43710;SDS011;29309;42.682;23.372;2023-02-21T07:08:37;11.65;;;5.88;;
43710;SDS011;29309;42.682;23.372;2023-02-21T07:11:03;13.70;;;4.32;;
43710;SDS011;29309;42.682;23.372;2023-02-21T07:13:30;10.63;;;3.63;;
43710;SDS011;29309;42.682;23.372;2023-02-21T07:15:56;8.40;;;3.63;;
43710;SDS011;29309;42.682;23.372;2023-02-21T07:18:21;9.90;;;4.85;;
43710;SDS011;29309;42.682;23.372;2023-02-21T07:20:47;9.23;;;3.67;;
43710;SDS011;29309;42.682;23.372;2023-02-21T07:23:13;10.48;;;4.57;;
43710;SDS011;29309;42.682;23.372;2023-02-21T07:25:39;17.98;;;3.45;;
43710;SDS011;29309;42.682;23.372;2023-02-21T07:28:04;18.63;;;3.83;;
43710;SDS011;29309;42.682;23.372;2023-02-21T07:30:30;8.65;;;3.30;;
43710;SDS011;29309;42.682;23.372;2023-02-21T07:32:55;14.43;;;3.95;;
43710;SDS011;29309;42.682;23.372;2023-02-21T07:35:21;15.85;;;4.38;;
43710;SDS011;29309;42.682;23.372;2023-02-21T07:37:47;9.75;;;3.53;;
43710;SDS011;29309;42.682;23.372;2023-02-21T07:40:12;11.10;;;3.50;;
43710;SDS011;29309;42.682;23.372;2023-02-21T07:42:39;9.63;;;3.53;;
43710;SDS011;29309;42.682;23.372;2023-02-21T07:45:07;12.48;;;4.28;;
43710;SDS011;29309;42.682;23.372;2023-02-21T07:47:34;11.23;;;4.35;;
43710;SDS011;29309;42.682;23.372;2023-02-21T07:49:59;11.38;;;3.95;;
43710;SDS011;29309;42.682;23.372;2023-02-21T07:52:24;10.23;;;3.40;;
43710;SDS011;29309;42.682;23.372;2023-02-21T07:54:50;17.70;;;4.93;;
43710;SDS011;29309;42.682;23.372;2023-02-21T07:57:16;10.30;;;2.80;;
43710;SDS011;29309;42.682;23.372;2023-02-21T07:59:42;13.82;;;3.03;;
43710;SDS011;29309;42.682;23.372;2023-02-21T08:02:08;13.18;;;3.95;;
43710;SDS011;29309;42.682;23.372;2023-02-21T08:04:37;9.77;;;3.42;;
43710;SDS011;29309;42.682;23.372;2023-02-21T08:07:03;10.23;;;4.20;;
43710;SDS011;29309;42.682;23.372;2023-02-21T08:09:29;8.20;;;2.92;;
43710;SDS011;29309;42.682;23.372;2023-02-21T08:11:54;10.75;;;2.92;;
43710;SDS011;29309;42.682;23.372;2023-02-21T08:14:20;8.65;;;2.80;;
43710;SDS011;29309;42.682;23.372;2023-02-21T08:16:46;9.40;;;2.75;;
43710;SDS011;29309;42.682;23.372;2023-02-21T08:19:11;9.13;;;3.80;;
43710;SDS011;29309;42.682;23.372;2023-02-21T08:21:37;13.70;;;3.58;;
43710;SDS011;29309;42.682;23.372;2023-02-21T08:24:02;7.00;;;3.00;;
43710;SDS011;29309;42.682;23.372;2023-02-21T08:26:28;6.68;;;3.33;;
43710;SDS011;29309;42.682;23.372;2023-02-21T08:28:53;11.90;;;3.75;;
43710;SDS011;29309;42.682;23.372;2023-02-21T08:31:19;14.02;;;4.45;;
43710;SDS011;29309;42.682;23.372;2023-02-21T08:33:45;11.07;;;3.90;;
43710;SDS011;29309;42.682;23.372;2023-02-21T08:36:10;14.32;;;3.65;;
43710;SDS011;29309;42.682;23.372;2023-02-21T08:38:36;13.13;;;4.05;;
43710;SDS011;29309;42.682;23.372;2023-02-21T08:41:03;9.55;;;4.30;;
43710;SDS011;29309;42.682;23.372;2023-02-21T08:43:30;14.02;;;6.10;;
43710;SDS011;29309;42.682;23.372;2023-02-21T08:45:56;9.13;;;4.03;;
43710;SDS011;29309;42.682;23.372;2023-02-21T08:48:21;6.30;;;3.90;;
43710;SDS011;29309;42.682;23.372;2023-02-21T08:50:46;12.60;;;4.55;;
43710;SDS011;29309;42.682;23.372;2023-02-21T08:53:12;10.52;;;4.22;;
43710;SDS011;29309;42.682;23.372;2023-02-21T08:55:39;10.20;;;5.43;;
43710;SDS011;29309;42.682;23.372;2023-02-21T08:58:04;11.20;;;4.28;;
43710;SDS011;29309;42.682;23.372;2023-02-21T09:00:30;14.65;;;5.78;;
43710;SDS011;29309;42.682;23.372;2023-02-21T09:02:56;13.70;;;4.40;;
43710;SDS011;29309;42.682;23.372;2023-02-21T09:05:27;17.40;;;3.60;;
43710;SDS011;29309;42.682;23.372;2023-02-21T09:07:55;6.65;;;2.30;;
43710;SDS011;29309;42.682;23.372;2023-02-21T09:10:26;17.48;;;3.25;;
43710;SDS011;29309;42.682;23.372;2023-02-21T09:12:52;8.55;;;2.13;;
43710;SDS011;29309;42.682;23.372;2023-02-21T09:15:18;9.10;;;2.53;;
43710;SDS011;29309;42.682;23.372;2023-02-21T09:17:44;13.00;;;3.58;;
43710;SDS011;29309;42.682;23.372;2023-02-21T09:20:12;11.70;;;4.75;;
43710;SDS011;29309;42.682;23.372;2023-02-21T09:22:44;17.90;;;6.68;;
43710;SDS011;29309;42.682;23.372;2023-02-21T09:25:11;21.38;;;4.63;;
43710;SDS011;29309;42.682;23.372;2023-02-21T09:27:38;15.48;;;4.85;;
43710;SDS011;29309;42.682;23.372;2023-02-21T09:32:34;32.47;;;12.15;;
43710;SDS011;29309;42.682;23.372;2023-02-21T09:35:01;82.70;;;19.67;;
43710;SDS011;29309;42.682;23.372;2023-02-21T09:37:26;19.55;;;6.15;;
43710;SDS011;29309;42.682;23.372;2023-02-21T09:39:52;25.77;;;6.57;;
43710;SDS011;29309;42.682;23.372;2023-02-21T09:42:17;26.75;;;5.72;;
43710;SDS011;29309;42.682;23.372;2023-02-21T09:44:45;12.80;;;4.05;;
43710;SDS011;29309;42.682;23.372;2023-02-21T09:47:18;14.02;;;4.22;;
43710;SDS011;29309;42.682;23.372;2023-02-21T09:50:05;9.20;;;3.70;;
43710;SDS011;29309;42.682;23.372;2023-02-21T09:52:36;11.90;;;4.13;;
43710;SDS011;29309;42.682;23.372;2023-02-21T09:55:10;9.73;;;3.90;;
43710;SDS011;29309;42.682;23.372;2023-02-21T09:57:43;8.85;;;4.25;;
43710;SDS011;29309;42.682;23.372;2023-02-21T10:00:14;13.00;;;4.45;;
43710;SDS011;29309;42.682;23.372;2023-02-21T10:02:45;16.75;;;4.15;;
43710;SDS011;29309;42.682;23.372;2023-02-21T10:05:26;15.23;;;3.72;;
43710;SDS011;29309;42.682;23.372;2023-02-21T10:08:21;11.80;;;4.10;;
43710;SDS011;29309;42.682;23.372;2023-02-21T10:10:50;12.00;;;3.92;;
43710;SDS011;29309;42.682;23.372;2023-02-21T10:21:23;12.15;;;3.80;;
43710;SDS011;29309;42.682;23.372;2023-02-21T10:24:11;15.60;;;4.40;;
43710;SDS011;29309;42.682;23.372;2023-02-21T10:26:41;11.80;;;4.47;;
43710;SDS011;29309;42.682;23.372;2023-02-21T10:29:20;7.22;;;3.55;;
43710;SDS011;29309;42.682;23.372;2023-02-21T10:31:49;11.95;;;4.07;;
43710;SDS011;29309;42.682;23.372;2023-02-21T10:34:22;8.38;;;3.50;;
43710;SDS011;29309;42.682;23.372;2023-02-21T10:36:50;23.27;;;4.07;;
43710;SDS011;29309;42.682;23.372;2023-02-21T10:39:18;12.20;;;3.10;;
43710;SDS011;29309;42.682;23.372;2023-02-21T10:41:46;10.40;;;3.88;;
43710;SDS011;29309;42.682;23.372;2023-02-21T10:44:21;11.95;;;4.15;;
43710;SDS011;29309;42.682;23.372;2023-02-21T10:46:54;9.73;;;3.72;;
43710;SDS011;29309;42.682;23.372;2023-02-21T10:52:05;21.20;;;3.83;;
43710;SDS011;29309;42.682;23.372;2023-02-21T10:54:30;6.00;;;3.10;;
43710;SDS011;29309;42.682;23.372;2023-02-21T10:56:56;15.77;;;4.20;;
43710;SDS011;29309;42.682;23.372;2023-02-21T10:59:25;8.95;;;2.80;;
43710;SDS011;29309;42.682;23.372;2023-02-21T11:02:00;8.15;;;2.25;;
43710;SDS011;29309;42.682;23.372;2023-02-21T11:04:30;3.10;;;1.10;;
43710;SDS011;29309;42.682;23.372;2023-02-21T11:07:07;5.80;;;1.10;;
43710;SDS011;29309;42.682;23.372;2023-02-21T11:09:36;22.95;;;2.42;;
43710;SDS011;29309;42.682;23.372;2023-02-21T11:17:22;4.63;;;0.90;;
43710;SDS011;29309;42.682;23.372;2023-02-21T11:19:54;1.92;;;1.10;;
43710;SDS011;29309;42.682;23.372;2023-02-21T11:22:25;18.27;;;1.40;;
43710;SDS011;29309;42.682;23.372;2023-02-21T11:28:03;2.88;;;1.10;;
43710;SDS011;29309;42.682;23.372;2023-02-21T11:30:30;14.30;;;2.00;;
43710;SDS011;29309;42.682;23.372;2023-02-21T11:32:59;1.67;;;0.73;;
43710;SDS011;29309;42.682;23.372;2023-02-21T11:35:38;4.22;;;0.85;;
43710;SDS011;29309;42.682;23.372;2023-02-21T11:38:10;4.22;;;0.98;;
43710;SDS011;29309;42.682;23.372;2023-02-21T11:40:55;15.23;;;1.30;;
43710;SDS011;29309;42.682;23.372;2023-02-21T11:43:23;5.75;;;1.05;;
43710;SDS011;29309;42.682;23.372;2023-02-21T11:48:53;7.57;;;2.45;;
43710;SDS011;29309;42.682;23.372;2023-02-21T11:51:40;14.13;;;2.08;;
43710;SDS011;29309;42.682;23.372;2023-02-21T11:54:10;1.95;;;1.30;;
43710;SDS011;29309;42.682;23.372;2023-02-21T12:21:42;4.97;;;1.63;;
43710;SDS011;29309;42.682;23.372;2023-02-21T12:27:07;11.52;;;2.00;;
43710;SDS011;29309;42.682;23.372;2023-02-21T12:44:03;5.32;;;1.50;;
43710;SDS011;29309;42.682;23.372;2023-02-21T12:46:24;3.92;;;1.98;;
43710;SDS011;29309;42.682;23.372;2023-02-21T12:49:36;1.92;;;1.17;;
43710;SDS011;29309;42.682;23.372;2023-02-21T12:52:18;2.38;;;1.30;;
43710;SDS011;29309;42.682;23.372;2023-02-21T12:57:55;2.58;;;1.08;;
43710;SDS011;29309;42.682;23.372;2023-02-21T13:00:21;2.05;;;0.80;;
43710;SDS011;29309;42.682;23.372;2023-02-21T13:05:24;5.05;;;1.67;;
43710;SDS011;29309;42.682;23.372;2023-02-21T13:08:05;2.40;;;1.27;;
43710;SDS011;29309;42.682;23.372;2023-02-21T13:13:33;4.10;;;1.30;;
43710;SDS011;29309;42.682;23.372;2023-02-21T13:16:01;3.53;;;1.10;;
43710;SDS011;29309;42.682;23.372;2023-02-21T13:18:31;2.05;;;1.00;;
43710;SDS011;29309;42.682;23.372;2023-02-21T13:29:37;4.72;;;1.00;;
43710;SDS011;29309;42.682;23.372;2023-02-21T13:32:13;3.35;;;1.30;;
43710;SDS011;29309;42.682;23.372;2023-02-21T13:34:46;2.90;;;1.83;;
43710;SDS011;29309;42.682;23.372;2023-02-21T13:37:18;4.68;;;1.20;;
43710;SDS011;29309;42.682;23.372;2023-02-21T13:39:59;2.50;;;1.00;;
43710;SDS011;29309;42.682;23.372;2023-02-21T13:42:32;3.92;;;1.73;;
43710;SDS011;29309;42.682;23.372;2023-02-21T13:45:08;3.45;;;1.50;;
43710;SDS011;29309;42.682;23.372;2023-02-21T13:55:32;5.13;;;1.40;;
43710;SDS011;29309;42.682;23.372;2023-02-21T14:10:57;2.00;;;1.17;;
43710;SDS011;29309;42.682;23.372;2023-02-21T14:13:38;3.53;;;1.20;;
43710;SDS011;29309;42.682;23.372;2023-02-21T14:23:55;7.57;;;1.20;;
43710;SDS011;29309;42.682;23.372;2023-02-21T14:29:16;3.92;;;1.77;;
43710;SDS011;29309;42.682;23.372;2023-02-21T14:34:39;2.90;;;1.00;;
43710;SDS011;29309;42.682;23.372;2023-02-21T14:37:29;10.43;;;1.95;;
43710;SDS011;29309;42.682;23.372;2023-02-21T15:08:23;6.13;;;2.22;;
43710;SDS011;29309;42.682;23.372;2023-02-21T15:10:50;8.27;;;1.52;;
43710;SDS011;29309;42.682;23.372;2023-02-21T15:13:28;4.85;;;1.95;;
43710;SDS011;29309;42.682;23.372;2023-02-21T15:15:58;3.78;;;2.33;;
43710;SDS011;29309;42.682;23.372;2023-02-21T15:18:28;8.55;;;1.42;;
43710;SDS011;29309;42.682;23.372;2023-02-21T15:23:49;7.75;;;1.90;;
43710;SDS011;29309;42.682;23.372;2023-02-21T15:26:32;6.05;;;1.75;;
43710;SDS011;29309;42.682;23.372;2023-02-21T15:29:31;14.20;;;5.05;;
43710;SDS011;29309;42.682;23.372;2023-02-21T15:31:54;6.35;;;2.00;;
43710;SDS011;29309;42.682;23.372;2023-02-21T15:36:54;6.93;;;2.00;;
43710;SDS011;29309;42.682;23.372;2023-02-21T15:39:42;13.63;;;2.67;;
43710;SDS011;29309;42.682;23.372;2023-02-21T15:42:14;13.15;;;5.80;;
43710;SDS011;29309;42.682;23.372;2023-02-21T15:44:42;9.45;;;2.75;;
43710;SDS011;29309;42.682;23.372;2023-02-21T15:47:12;5.72;;;2.45;;
43710;SDS011;29309;42.682;23.372;2023-02-21T15:49:43;7.90;;;2.30;;
43710;SDS011;29309;42.682;23.372;2023-02-21T15:57:56;8.10;;;2.40;;
43710;SDS011;29309;42.682;23.372;2023-02-21T16:02:50;6.68;;;2.42;;
43710;SDS011;29309;42.682;23.372;2023-02-21T16:05:22;5.03;;;2.05;;
43710;SDS011;29309;42.682;23.372;2023-02-21T16:07:47;7.68;;;2.17;;
43710;SDS011;29309;42.682;23.372;2023-02-21T16:10:18;13.93;;;2.58;;
43710;SDS011;29309;42.682;23.372;2023-02-21T16:12:46;9.05;;;2.78;;
43710;SDS011;29309;42.682;23.372;2023-02-21T16:17:50;5.43;;;2.97;;
43710;SDS011;29309;42.682;23.372;2023-02-21T16:20:21;8.48;;;2.83;;
43710;SDS011;29309;42.682;23.372;2023-02-21T16:26:02;7.40;;;3.13;;
43710;SDS011;29309;42.682;23.372;2023-02-21T16:28:48;9.23;;;3.25;;
43710;SDS011;29309;42.682;23.372;2023-02-21T16:31:14;6.53;;;2.83;;
43710;SDS011;29309;42.682;23.372;2023-02-21T16:33:48;10.25;;;3.38;;
43710;SDS011;29309;42.682;23.372;2023-02-21T16:36:30;8.02;;;3.25;;
43710;SDS011;29309;42.682;23.372;2023-02-21T16:38:57;6.85;;;3.22;;
43710;SDS011;29309;42.682;23.372;2023-02-21T16:41:23;5.97;;;3.10;;
43710;SDS011;29309;42.682;23.372;2023-02-21T16:43:49;8.63;;;3.33;;
43710;SDS011;29309;42.682;23.372;2023-02-21T16:46:15;10.90;;;3.85;;
43710;SDS011;29309;42.682;23.372;2023-02-21T16:48:49;8.55;;;3.45;;
43710;SDS011;29309;42.682;23.372;2023-02-21T16:51:17;15.85;;;4.50;;
43710;SDS011;29309;42.682;23.372;2023-02-21T16:53:42;9.35;;;4.32;;
43710;SDS011;29309;42.682;23.372;2023-02-21T16:56:10;13.40;;;4.25;;
43710;SDS011;29309;42.682;23.372;2023-02-21T16:58:44;32.63;;;4.70;;
43710;SDS011;29309;42.682;23.372;2023-02-21T17:01:13;9.20;;;3.38;;
43710;SDS011;29309;42.682;23.372;2023-02-21T17:03:44;11.15;;;4.30;;
43710;SDS011;29309;42.682;23.372;2023-02-21T17:06:14;17.80;;;4.72;;
43710;SDS011;29309;42.682;23.372;2023-02-21T17:08:44;12.35;;;4.28;;
43710;SDS011;29309;42.682;23.372;2023-02-21T17:11:09;15.75;;;4.32;;
43710;SDS011;29309;42.682;23.372;2023-02-21T17:13:36;19.33;;;4.35;;
43710;SDS011;29309;42.682;23.372;2023-02-21T17:16:01;12.20;;;3.80;;
43710;SDS011;29309;42.682;23.372;2023-02-21T17:18:27;15.27;;;3.75;;
43710;SDS011;29309;42.682;23.372;2023-02-21T17:20:53;12.98;;;4.85;;
43710;SDS011;29309;42.682;23.372;2023-02-21T17:23:19;9.60;;;3.53;;
43710;SDS011;29309;42.682;23.372;2023-02-21T17:25:50;11.45;;;3.97;;
43710;SDS011;29309;42.682;23.372;2023-02-21T17:28:15;12.45;;;4.40;;
43710;SDS011;29309;42.682;23.372;2023-02-21T17:30:41;14.75;;;3.83;;
43710;SDS011;29309;42.682;23.372;2023-02-21T17:33:07;22.90;;;4.35;;
43710;SDS011;29309;42.682;23.372;2023-02-21T17:35:35;15.43;;;4.82;;
43710;SDS011;29309;42.682;23.372;2023-02-21T17:38:00;17.15;;;5.65;;
43710;SDS011;29309;42.682;23.372;2023-02-21T17:40:26;16.70;;;5.03;;
43710;SDS011;29309;42.682;23.372;2023-02-21T17:42:52;12.85;;;5.57;;
43710;SDS011;29309;42.682;23.372;2023-02-21T17:45:19;13.85;;;6.30;;
43710;SDS011;29309;42.682;23.372;2023-02-21T17:47:46;15.10;;;5.60;;
43710;SDS011;29309;42.682;23.372;2023-02-21T17:50:13;24.48;;;6.03;;
43710;SDS011;29309;42.682;23.372;2023-02-21T17:52:39;14.40;;;5.35;;
43710;SDS011;29309;42.682;23.372;2023-02-21T17:55:05;16.05;;;5.78;;
43710;SDS011;29309;42.682;23.372;2023-02-21T17:57:35;11.90;;;5.65;;
43710;SDS011;29309;42.682;23.372;2023-02-21T18:00:24;15.23;;;5.90;;
43710;SDS011;29309;42.682;23.372;2023-02-21T18:02:50;12.15;;;7.00;;
43710;SDS011;29309;42.682;23.372;2023-02-21T18:05:17;17.52;;;7.85;;
43710;SDS011;29309;42.682;23.372;2023-02-21T18:07:47;23.02;;;11.57;;
43710;SDS011;29309;42.682;23.372;2023-02-21T18:10:17;23.33;;;12.65;;
43710;SDS011;29309;42.682;23.372;2023-02-21T18:12:44;22.98;;;11.77;;
43710;SDS011;29309;42.682;23.372;2023-02-21T18:15:10;22.77;;;9.30;;